sensor_id;sensor_type;location;lat;lon;timestamp;pressure;altitude;pressure_sealevel;temperature;humidity
69219;BME280;56232;53.384;-2.732;2023-12-29T00:01:30;99519.73;;;7.65;41.83
69219;BME280;56232;53.384;-2.732;2023-12-29T00:03:56;99518.38;;;7.90;41.08
69219;BME280;56232;53.384;-2.732;2023-12-29T00:06:21;99506.41;;;8.08;41.24
69219;BME280;56232;53.384;-2.732;2023-12-29T00:08:47;99514.90;;;7.92;40.66
69219;BME280;56232;53.384;-2.732;2023-12-29T00:11:17;99515.11;;;7.70;41.01
69219;BME280;56232;53.384;-2.732;2023-12-29T00:13:38;99509.04;;;8.21;41.38
69219;BME280;56232;53.384;-2.732;2023-12-29T00:16:04;99513.42;;;7.51;41.85
69219;BME280;56232;53.384;-2.732;2023-12-29T00:18:29;99509.63;;;8.01;41.33
69219;BME280;56232;53.384;-2.732;2023-12-29T00:20:55;99515.19;;;7.31;41.65
69219;BME280;56232;53.384;-2.732;2023-12-29T00:23:21;99521.65;;;7.26;41.85
69219;BME280;56232;53.384;-2.732;2023-12-29T00:25:46;99531.65;;;7.15;42.07
69219;BME280;56232;53.384;-2.732;2023-12-29T00:28:12;99514.38;;;7.62;42.28
69219;BME280;56232;53.384;-2.732;2023-12-29T00:30:39;99519.16;;;7.44;41.80
69219;BME280;56232;53.384;-2.732;2023-12-29T00:33:04;99515.53;;;6.88;41.75
69219;BME280;56232;53.384;-2.732;2023-12-29T00:35:29;99516.37;;;7.01;42.08
69219;BME280;56232;53.384;-2.732;2023-12-29T00:37:54;99504.88;;;6.92;41.98
69219;BME280;56232;53.384;-2.732;2023-12-29T00:40:20;99503.33;;;7.00;41.94
69219;BME280;56232;53.384;-2.732;2023-12-29T00:42:46;99494.72;;;7.64;41.65
69219;BME280;56232;53.384;-2.732;2023-12-29T00:45:11;99496.72;;;8.04;41.81
69219;BME280;56232;53.384;-2.732;2023-12-29T00:47:36;99496.32;;;6.96;41.78
69219;BME280;56232;53.384;-2.732;2023-12-29T00:50:03;99495.87;;;6.94;42.14
69219;BME280;56232;53.384;-2.732;2023-12-29T00:52:28;99493.69;;;7.63;41.95
69219;BME280;56232;53.384;-2.732;2023-12-29T00:54:53;99495.99;;;6.96;42.11
69219;BME280;56232;53.384;-2.732;2023-12-29T00:57:19;99496.39;;;6.98;41.53
69219;BME280;56232;53.384;-2.732;2023-12-29T00:59:47;99496.38;;;7.00;41.50
69219;BME280;56232;53.384;-2.732;2023-12-29T01:02:10;99503.10;;;7.51;41.88
69219;BME280;56232;53.384;-2.732;2023-12-29T01:04:37;99506.04;;;8.19;41.95
69219;BME280;56232;53.384;-2.732;2023-12-29T01:07:01;99508.07;;;7.20;41.08
69219;BME280;56232;53.384;-2.732;2023-12-29T01:09:27;99509.34;;;7.33;41.24
69219;BME280;56232;53.384;-2.732;2023-12-29T01:11:52;99513.35;;;7.34;41.00
69219;BME280;56232;53.384;-2.732;2023-12-29T01:14:18;99512.47;;;8.43;41.48
69219;BME280;56232;53.384;-2.732;2023-12-29T01:16:45;99525.09;;;7.13;41.36
69219;BME280;56232;53.384;-2.732;2023-12-29T01:19:09;99512.93;;;7.13;41.55
69219;BME280;56232;53.384;-2.732;2023-12-29T01:21:37;99509.39;;;7.74;41.01
69219;BME280;56232;53.384;-2.732;2023-12-29T01:24:01;99514.92;;;7.18;41.46
69219;BME280;56232;53.384;-2.732;2023-12-29T01:26:26;99517.91;;;7.16;41.46
69219;BME280;56232;53.384;-2.732;2023-12-29T01:28:52;99515.37;;;7.76;41.13
69219;BME280;56232;53.384;-2.732;2023-12-29T01:31:18;99508.45;;;7.27;41.18
69219;BME280;56232;53.384;-2.732;2023-12-29T01:33:44;99510.11;;;7.98;40.74
69219;BME280;56232;53.384;-2.732;2023-12-29T01:36:09;99502.64;;;7.85;41.12
69219;BME280;56232;53.384;-2.732;2023-12-29T01:38:35;99506.27;;;7.28;40.81
69219;BME280;56232;53.384;-2.732;2023-12-29T01:41:02;99506.28;;;7.94;40.94
69219;BME280;56232;53.384;-2.732;2023-12-29T01:43:26;99507.55;;;7.52;40.83
69219;BME280;56232;53.384;-2.732;2023-12-29T01:45:51;99504.76;;;7.52;40.80
69219;BME280;56232;53.384;-2.732;2023-12-29T01:48:17;99496.84;;;8.82;40.59
69219;BME280;56232;53.384;-2.732;2023-12-29T01:50:44;99499.12;;;8.04;40.87
69219;BME280;56232;53.384;-2.732;2023-12-29T01:53:08;99500.72;;;7.43;41.17
69219;BME280;56232;53.384;-2.732;2023-12-29T01:55:34;99502.85;;;7.82;41.23
69219;BME280;56232;53.384;-2.732;2023-12-29T01:57:59;99509.30;;;7.12;41.05
69219;BME280;56232;53.384;-2.732;2023-12-29T02:00:26;99506.63;;;7.84;40.87
69219;BME280;56232;53.384;-2.732;2023-12-29T02:02:51;99512.96;;;7.22;41.14
69219;BME280;56232;53.384;-2.732;2023-12-29T02:05:17;99511.67;;;7.23;40.98
69219;BME280;56232;53.384;-2.732;2023-12-29T02:07:42;99511.81;;;7.10;41.32
69219;BME280;56232;53.384;-2.732;2023-12-29T02:10:08;99512.36;;;6.90;41.56
69219;BME280;56232;53.384;-2.732;2023-12-29T02:12:34;99518.13;;;6.92;40.96
69219;BME280;56232;53.384;-2.732;2023-12-29T02:14:58;99524.14;;;8.05;41.57
69219;BME280;56232;53.384;-2.732;2023-12-29T02:17:27;99525.14;;;7.49;41.31
69219;BME280;56232;53.384;-2.732;2023-12-29T02:19:50;99526.85;;;7.48;41.69
69219;BME280;56232;53.384;-2.732;2023-12-29T02:22:15;99522.12;;;6.84;41.66
69219;BME280;56232;53.384;-2.732;2023-12-29T02:24:44;99519.69;;;7.48;41.61
69219;BME280;56232;53.384;-2.732;2023-12-29T02:27:13;99518.77;;;7.97;41.52
69219;BME280;56232;53.384;-2.732;2023-12-29T02:29:33;99519.50;;;6.88;41.43
69219;BME280;56232;53.384;-2.732;2023-12-29T02:31:59;99522.89;;;7.51;41.14
69219;BME280;56232;53.384;-2.732;2023-12-29T02:34:24;99526.17;;;7.03;41.40
69219;BME280;56232;53.384;-2.732;2023-12-29T02:36:50;99525.98;;;7.17;40.51
69219;BME280;56232;53.384;-2.732;2023-12-29T02:39:15;99524.19;;;7.10;40.56
69219;BME280;56232;53.384;-2.732;2023-12-29T02:41:40;99531.30;;;7.08;40.70
69219;BME280;56232;53.384;-2.732;2023-12-29T02:44:06;99532.23;;;7.60;39.93
69219;BME280;56232;53.384;-2.732;2023-12-29T02:46:32;99532.88;;;6.93;39.69
69219;BME280;56232;53.384;-2.732;2023-12-29T02:48:57;99531.99;;;7.56;40.16
69219;BME280;56232;53.384;-2.732;2023-12-29T02:51:23;99529.63;;;7.46;40.14
69219;BME280;56232;53.384;-2.732;2023-12-29T02:53:49;99531.36;;;6.66;40.02
69219;BME280;56232;53.384;-2.732;2023-12-29T02:56:14;99538.18;;;7.62;40.11
69219;BME280;56232;53.384;-2.732;2023-12-29T02:58:40;99535.21;;;7.54;40.51
69219;BME280;56232;53.384;-2.732;2023-12-29T03:01:05;99538.27;;;7.10;40.65
69219;BME280;56232;53.384;-2.732;2023-12-29T03:03:31;99534.54;;;7.76;40.40
69219;BME280;56232;53.384;-2.732;2023-12-29T03:05:57;99530.17;;;7.22;40.34
69219;BME280;56232;53.384;-2.732;2023-12-29T03:08:23;99533.03;;;7.66;40.18
69219;BME280;56232;53.384;-2.732;2023-12-29T03:10:48;99533.75;;;7.09;40.57
69219;BME280;56232;53.384;-2.732;2023-12-29T03:13:14;99538.75;;;7.86;40.29
69219;BME280;56232;53.384;-2.732;2023-12-29T03:15:46;99533.83;;;6.76;40.60
69219;BME280;56232;53.384;-2.732;2023-12-29T03:18:06;99535.10;;;7.40;40.54
69219;BME280;56232;53.384;-2.732;2023-12-29T03:20:31;99532.98;;;7.86;40.34
69219;BME280;56232;53.384;-2.732;2023-12-29T03:22:57;99532.33;;;6.68;39.81
69219;BME280;56232;53.384;-2.732;2023-12-29T03:25:23;99533.79;;;7.64;40.41
69219;BME280;56232;53.384;-2.732;2023-12-29T03:27:48;99530.83;;;7.57;40.94
69219;BME280;56232;53.384;-2.732;2023-12-29T03:30:14;99527.99;;;7.52;41.01
69219;BME280;56232;53.384;-2.732;2023-12-29T03:32:39;99527.76;;;6.96;40.78
69219;BME280;56232;53.384;-2.732;2023-12-29T03:35:05;99532.11;;;7.48;40.54
69219;BME280;56232;53.384;-2.732;2023-12-29T03:37:30;99524.12;;;6.88;40.74
69219;BME280;56232;53.384;-2.732;2023-12-29T03:39:56;99529.13;;;6.25;40.62
69219;BME280;56232;53.384;-2.732;2023-12-29T03:42:21;99524.60;;;6.94;40.59
69219;BME280;56232;53.384;-2.732;2023-12-29T03:44:47;99528.70;;;6.81;40.30
69219;BME280;56232;53.384;-2.732;2023-12-29T03:47:13;99526.13;;;7.27;40.69
69219;BME280;56232;53.384;-2.732;2023-12-29T03:49:38;99523.46;;;7.24;41.10
69219;BME280;56232;53.384;-2.732;2023-12-29T03:52:04;99534.29;;;7.31;41.05
69219;BME280;56232;53.384;-2.732;2023-12-29T03:54:30;99531.65;;;7.28;41.13
69219;BME280;56232;53.384;-2.732;2023-12-29T03:56:55;99524.06;;;6.79;40.58
69219;BME280;56232;53.384;-2.732;2023-12-29T03:59:21;99534.61;;;7.26;40.83
69219;BME280;56232;53.384;-2.732;2023-12-29T04:01:47;99533.25;;;7.30;40.89
69219;BME280;56232;53.384;-2.732;2023-12-29T04:04:12;99532.69;;;7.18;40.88
69219;BME280;56232;53.384;-2.732;2023-12-29T04:06:38;99521.15;;;7.23;41.01
69219;BME280;56232;53.384;-2.732;2023-12-29T04:09:03;99520.95;;;6.84;40.86
69219;BME280;56232;53.384;-2.732;2023-12-29T04:11:28;99525.95;;;6.78;40.36
69219;BME280;56232;53.384;-2.732;2023-12-29T04:13:54;99529.31;;;7.27;40.07
69219;BME280;56232;53.384;-2.732;2023-12-29T04:16:20;99533.83;;;7.23;40.37
69219;BME280;56232;53.384;-2.732;2023-12-29T04:18:46;99541.02;;;7.24;40.28
69219;BME280;56232;53.384;-2.732;2023-12-29T04:21:13;99531.21;;;6.80;40.35
69219;BME280;56232;53.384;-2.732;2023-12-29T04:23:36;99531.01;;;7.29;40.12
69219;BME280;56232;53.384;-2.732;2023-12-29T04:26:02;99545.23;;;7.33;39.98
69219;BME280;56232;53.384;-2.732;2023-12-29T04:28:28;99544.66;;;6.69;39.93
69219;BME280;56232;53.384;-2.732;2023-12-29T04:30:53;99544.82;;;7.11;40.24
69219;BME280;56232;53.384;-2.732;2023-12-29T04:33:19;99538.64;;;7.02;40.40
69219;BME280;56232;53.384;-2.732;2023-12-29T04:35:46;99537.26;;;7.04;39.78
69219;BME280;56232;53.384;-2.732;2023-12-29T04:38:10;99539.73;;;7.05;40.17
69219;BME280;56232;53.384;-2.732;2023-12-29T04:40:36;99536.97;;;6.79;40.39
69219;BME280;56232;53.384;-2.732;2023-12-29T04:43:01;99536.95;;;6.65;40.12
69219;BME280;56232;53.384;-2.732;2023-12-29T04:45:27;99536.07;;;6.13;40.20
69219;BME280;56232;53.384;-2.732;2023-12-29T04:47:52;99542.03;;;6.67;40.18
69219;BME280;56232;53.384;-2.732;2023-12-29T04:50:18;99561.50;;;6.67;39.54
69219;BME280;56232;53.384;-2.732;2023-12-29T04:52:44;99556.48;;;6.70;40.23
69219;BME280;56232;53.384;-2.732;2023-12-29T04:55:09;99552.81;;;6.90;40.04
69219;BME280;56232;53.384;-2.732;2023-12-29T04:57:34;99549.98;;;6.72;40.79
69219;BME280;56232;53.384;-2.732;2023-12-29T05:00:00;99549.69;;;6.72;40.23
69219;BME280;56232;53.384;-2.732;2023-12-29T05:02:25;99562.47;;;6.75;40.20
69219;BME280;56232;53.384;-2.732;2023-12-29T05:04:51;99573.23;;;6.60;40.55
69219;BME280;56232;53.384;-2.732;2023-12-29T05:07:17;99579.49;;;7.08;39.99
69219;BME280;56232;53.384;-2.732;2023-12-29T05:09:43;99563.63;;;6.59;40.62
69219;BME280;56232;53.384;-2.732;2023-12-29T05:12:08;99571.51;;;7.17;41.11
69219;BME280;56232;53.384;-2.732;2023-12-29T05:14:34;99568.88;;;6.79;40.87
69219;BME280;56232;53.384;-2.732;2023-12-29T05:16:59;99570.57;;;6.45;40.26
69219;BME280;56232;53.384;-2.732;2023-12-29T05:19:25;99571.25;;;7.00;40.32
69219;BME280;56232;53.384;-2.732;2023-12-29T05:21:51;99564.88;;;6.99;40.88
69219;BME280;56232;53.384;-2.732;2023-12-29T05:24:16;99560.08;;;7.24;40.30
69219;BME280;56232;53.384;-2.732;2023-12-29T05:26:41;99577.50;;;7.26;40.16
69219;BME280;56232;53.384;-2.732;2023-12-29T05:29:07;99569.84;;;7.60;40.18
69219;BME280;56232;53.384;-2.732;2023-12-29T05:31:33;99583.95;;;7.48;40.45
69219;BME280;56232;53.384;-2.732;2023-12-29T05:33:58;99574.27;;;6.30;40.54
69219;BME280;56232;53.384;-2.732;2023-12-29T05:36:24;99572.70;;;7.48;40.77
69219;BME280;56232;53.384;-2.732;2023-12-29T05:38:50;99564.92;;;7.05;40.73
69219;BME280;56232;53.384;-2.732;2023-12-29T05:41:16;99570.16;;;7.36;40.57
69219;BME280;56232;53.384;-2.732;2023-12-29T05:43:41;99580.58;;;7.47;40.20
69219;BME280;56232;53.384;-2.732;2023-12-29T05:46:09;99585.25;;;7.77;39.97
69219;BME280;56232;53.384;-2.732;2023-12-29T05:48:32;99586.12;;;7.28;40.69
69219;BME280;56232;53.384;-2.732;2023-12-29T05:50:57;99593.58;;;7.43;40.82
69219;BME280;56232;53.384;-2.732;2023-12-29T05:53:23;99590.86;;;7.34;40.60
69219;BME280;56232;53.384;-2.732;2023-12-29T05:55:49;99599.38;;;7.27;40.55
69219;BME280;56232;53.384;-2.732;2023-12-29T05:58:14;99606.25;;;6.97;40.45
69219;BME280;56232;53.384;-2.732;2023-12-29T06:00:40;99605.35;;;7.15;39.85
69219;BME280;56232;53.384;-2.732;2023-12-29T06:03:06;99600.53;;;7.55;40.12
69219;BME280;56232;53.384;-2.732;2023-12-29T06:05:32;99606.97;;;7.31;40.17
69219;BME280;56232;53.384;-2.732;2023-12-29T06:07:57;99607.59;;;7.32;40.12
69219;BME280;56232;53.384;-2.732;2023-12-29T06:10:22;99608.93;;;7.16;39.98
69219;BME280;56232;53.384;-2.732;2023-12-29T06:12:48;99613.00;;;7.09;40.40
69219;BME280;56232;53.384;-2.732;2023-12-29T06:15:13;99615.87;;;7.17;40.11
69219;BME280;56232;53.384;-2.732;2023-12-29T06:17:39;99612.97;;;7.20;40.38
69219;BME280;56232;53.384;-2.732;2023-12-29T06:20:05;99612.89;;;7.03;40.36
69219;BME280;56232;53.384;-2.732;2023-12-29T06:22:29;99616.63;;;7.02;40.00
69219;BME280;56232;53.384;-2.732;2023-12-29T06:24:54;99612.10;;;7.42;40.66
69219;BME280;56232;53.384;-2.732;2023-12-29T06:27:20;99618.14;;;6.81;40.21
69219;BME280;56232;53.384;-2.732;2023-12-29T06:29:46;99623.52;;;6.81;40.35
69219;BME280;56232;53.384;-2.732;2023-12-29T06:32:11;99630.75;;;6.82;39.94
69219;BME280;56232;53.384;-2.732;2023-12-29T06:34:37;99626.75;;;6.86;40.71
69219;BME280;56232;53.384;-2.732;2023-12-29T06:37:03;99631.10;;;6.90;39.93
69219;BME280;56232;53.384;-2.732;2023-12-29T06:39:28;99633.37;;;7.01;40.42
69219;BME280;56232;53.384;-2.732;2023-12-29T06:41:54;99641.59;;;6.87;40.30
69219;BME280;56232;53.384;-2.732;2023-12-29T06:44:19;99646.84;;;6.83;40.60
69219;BME280;56232;53.384;-2.732;2023-12-29T06:46:46;99648.93;;;6.67;40.54
69219;BME280;56232;53.384;-2.732;2023-12-29T06:49:11;99649.63;;;6.82;39.47
69219;BME280;56232;53.384;-2.732;2023-12-29T06:51:36;99654.83;;;6.86;39.71
69219;BME280;56232;53.384;-2.732;2023-12-29T06:54:02;99646.01;;;6.33;40.12
69219;BME280;56232;53.384;-2.732;2023-12-29T06:56:27;99653.77;;;6.76;40.73
69219;BME280;56232;53.384;-2.732;2023-12-29T06:58:53;99666.04;;;6.65;40.83
69219;BME280;56232;53.384;-2.732;2023-12-29T07:01:19;99666.07;;;6.61;40.65
69219;BME280;56232;53.384;-2.732;2023-12-29T07:03:46;99665.24;;;7.11;39.75
69219;BME280;56232;53.384;-2.732;2023-12-29T07:06:10;99669.75;;;6.64;39.92
69219;BME280;56232;53.384;-2.732;2023-12-29T07:08:35;99668.86;;;7.16;40.27
69219;BME280;56232;53.384;-2.732;2023-12-29T07:11:01;99674.11;;;6.55;40.43
69219;BME280;56232;53.384;-2.732;2023-12-29T07:13:27;99686.73;;;6.56;40.47
69219;BME280;56232;53.384;-2.732;2023-12-29T07:15:52;99687.77;;;6.69;40.16
69219;BME280;56232;53.384;-2.732;2023-12-29T07:18:18;99681.08;;;6.63;40.38
69219;BME280;56232;53.384;-2.732;2023-12-29T07:20:44;99692.44;;;7.07;39.80
69219;BME280;56232;53.384;-2.732;2023-12-29T07:23:09;99683.54;;;6.54;40.36
69219;BME280;56232;53.384;-2.732;2023-12-29T07:25:34;99670.75;;;6.54;40.79
69219;BME280;56232;53.384;-2.732;2023-12-29T07:28:00;99683.50;;;6.59;39.52
69219;BME280;56232;53.384;-2.732;2023-12-29T07:30:26;99680.25;;;7.14;40.71
69219;BME280;56232;53.384;-2.732;2023-12-29T07:32:51;99690.39;;;7.04;40.30
69219;BME280;56232;53.384;-2.732;2023-12-29T07:35:16;99688.99;;;5.90;41.02
69219;BME280;56232;53.384;-2.732;2023-12-29T07:37:42;99693.44;;;6.49;41.04
69219;BME280;56232;53.384;-2.732;2023-12-29T07:40:10;99698.21;;;7.14;40.42
69219;BME280;56232;53.384;-2.732;2023-12-29T07:42:34;99690.04;;;6.14;40.60
69219;BME280;56232;53.384;-2.732;2023-12-29T07:44:59;99689.26;;;6.62;40.61
69219;BME280;56232;53.384;-2.732;2023-12-29T07:47:26;99702.57;;;6.55;40.11
69219;BME280;56232;53.384;-2.732;2023-12-29T07:49:50;99709.70;;;6.60;41.17
69219;BME280;56232;53.384;-2.732;2023-12-29T07:52:16;99711.15;;;7.06;40.71
69219;BME280;56232;53.384;-2.732;2023-12-29T07:54:41;99712.36;;;6.50;40.27
69219;BME280;56232;53.384;-2.732;2023-12-29T07:57:07;99713.88;;;6.62;40.35
69219;BME280;56232;53.384;-2.732;2023-12-29T07:59:33;99712.25;;;6.54;40.82
69219;BME280;56232;53.384;-2.732;2023-12-29T08:01:59;99713.33;;;7.18;40.51
69219;BME280;56232;53.384;-2.732;2023-12-29T08:04:24;99724.18;;;6.88;40.37
69219;BME280;56232;53.384;-2.732;2023-12-29T08:06:50;99717.57;;;6.86;40.65
69219;BME280;56232;53.384;-2.732;2023-12-29T08:09:15;99729.75;;;6.75;39.44
69219;BME280;56232;53.384;-2.732;2023-12-29T08:11:41;99727.78;;;6.81;40.01
69219;BME280;56232;53.384;-2.732;2023-12-29T08:14:07;99728.19;;;6.90;39.30
69219;BME280;56232;53.384;-2.732;2023-12-29T08:16:37;99734.85;;;6.92;39.46
69219;BME280;56232;53.384;-2.732;2023-12-29T08:18:58;99732.25;;;7.00;39.35
69219;BME280;56232;53.384;-2.732;2023-12-29T08:21:24;99734.98;;;6.96;39.88
69219;BME280;56232;53.384;-2.732;2023-12-29T08:23:49;99736.45;;;6.42;39.98
69219;BME280;56232;53.384;-2.732;2023-12-29T08:26:15;99739.76;;;6.93;39.28
69219;BME280;56232;53.384;-2.732;2023-12-29T08:28:40;99744.19;;;7.30;39.70
69219;BME280;56232;53.384;-2.732;2023-12-29T08:31:07;99740.65;;;6.81;39.95
69219;BME280;56232;53.384;-2.732;2023-12-29T08:33:32;99741.32;;;6.77;39.65
69219;BME280;56232;53.384;-2.732;2023-12-29T08:35:57;99735.93;;;7.23;39.80
69219;BME280;56232;53.384;-2.732;2023-12-29T08:38:23;99742.20;;;6.90;40.16
69219;BME280;56232;53.384;-2.732;2023-12-29T08:40:48;99742.07;;;6.68;39.59
69219;BME280;56232;53.384;-2.732;2023-12-29T08:43:14;99749.95;;;7.25;40.36
69219;BME280;56232;53.384;-2.732;2023-12-29T08:45:40;99749.42;;;6.70;39.58
69219;BME280;56232;53.384;-2.732;2023-12-29T08:48:06;99746.66;;;7.18;39.49
69219;BME280;56232;53.384;-2.732;2023-12-29T08:50:31;99746.46;;;6.74;40.34
69219;BME280;56232;53.384;-2.732;2023-12-29T08:52:56;99742.71;;;6.62;40.13
69219;BME280;56232;53.384;-2.732;2023-12-29T08:55:22;99746.60;;;6.73;40.11
69219;BME280;56232;53.384;-2.732;2023-12-29T08:57:47;99742.28;;;6.80;40.19
69219;BME280;56232;53.384;-2.732;2023-12-29T09:00:14;99749.52;;;6.84;39.87
69219;BME280;56232;53.384;-2.732;2023-12-29T09:02:39;99759.15;;;7.37;40.61
69219;BME280;56232;53.384;-2.732;2023-12-29T09:05:05;99761.63;;;6.87;40.23
69219;BME280;56232;53.384;-2.732;2023-12-29T09:07:30;99761.86;;;6.86;39.97
69219;BME280;56232;53.384;-2.732;2023-12-29T09:09:56;99759.78;;;7.50;39.91
69219;BME280;56232;53.384;-2.732;2023-12-29T09:12:21;99761.98;;;6.50;39.79
69219;BME280;56232;53.384;-2.732;2023-12-29T09:14:52;99772.47;;;7.15;39.85
69219;BME280;56232;53.384;-2.732;2023-12-29T09:17:13;99775.30;;;7.27;39.64
69219;BME280;56232;53.384;-2.732;2023-12-29T09:19:38;99771.12;;;7.32;39.35
69219;BME280;56232;53.384;-2.732;2023-12-29T09:22:04;99774.83;;;7.28;39.52
69219;BME280;56232;53.384;-2.732;2023-12-29T09:24:30;99789.48;;;7.48;38.83
69219;BME280;56232;53.384;-2.732;2023-12-29T09:26:55;99790.33;;;7.69;38.78
69219;BME280;56232;53.384;-2.732;2023-12-29T09:29:21;99798.32;;;7.97;39.01
69219;BME280;56232;53.384;-2.732;2023-12-29T09:31:47;99796.18;;;8.11;38.79
69219;BME280;56232;53.384;-2.732;2023-12-29T09:34:12;99804.05;;;6.99;38.76
69219;BME280;56232;53.384;-2.732;2023-12-29T09:36:37;99797.17;;;8.13;38.56
69219;BME280;56232;53.384;-2.732;2023-12-29T09:39:03;99794.60;;;7.74;38.97
69219;BME280;56232;53.384;-2.732;2023-12-29T09:41:31;99799.90;;;7.11;38.64
69219;BME280;56232;53.384;-2.732;2023-12-29T09:43:54;99794.79;;;7.55;39.07
69219;BME280;56232;53.384;-2.732;2023-12-29T09:46:22;99795.96;;;8.09;38.45
69219;BME280;56232;53.384;-2.732;2023-12-29T09:48:47;99800.61;;;8.17;39.01
69219;BME280;56232;53.384;-2.732;2023-12-29T09:51:12;99807.42;;;7.55;38.30
69219;BME280;56232;53.384;-2.732;2023-12-29T09:53:37;99812.51;;;8.26;39.16
69219;BME280;56232;53.384;-2.732;2023-12-29T09:56:03;99802.20;;;7.45;38.92
69219;BME280;56232;53.384;-2.732;2023-12-29T09:58:27;99802.45;;;7.66;38.28
69219;BME280;56232;53.384;-2.732;2023-12-29T10:00:53;99798.58;;;7.63;38.73
69219;BME280;56232;53.384;-2.732;2023-12-29T10:03:18;99799.19;;;7.67;38.65
69219;BME280;56232;53.384;-2.732;2023-12-29T10:05:50;99803.19;;;7.55;38.81
69219;BME280;56232;53.384;-2.732;2023-12-29T10:08:10;99818.23;;;7.46;37.99
69219;BME280;56232;53.384;-2.732;2023-12-29T10:10:37;99801.89;;;7.48;38.78
69219;BME280;56232;53.384;-2.732;2023-12-29T10:13:01;99806.79;;;7.51;38.34
69219;BME280;56232;53.384;-2.732;2023-12-29T10:15:31;99820.68;;;7.64;37.83
69219;BME280;56232;53.384;-2.732;2023-12-29T10:17:58;99823.04;;;8.29;38.41
69219;BME280;56232;53.384;-2.732;2023-12-29T10:20:28;99826.93;;;7.71;38.02
69219;BME280;56232;53.384;-2.732;2023-12-29T10:22:48;99822.57;;;7.89;38.18
69219;BME280;56232;53.384;-2.732;2023-12-29T10:25:09;99820.29;;;8.05;37.99
69219;BME280;56232;53.384;-2.732;2023-12-29T10:27:35;99815.68;;;8.40;38.26
69219;BME280;56232;53.384;-2.732;2023-12-29T10:30:00;99814.91;;;8.18;38.09
69219;BME280;56232;53.384;-2.732;2023-12-29T10:32:26;99829.57;;;8.40;38.29
69219;BME280;56232;53.384;-2.732;2023-12-29T10:37:22;99847.33;;;8.53;37.48
69219;BME280;56232;53.384;-2.732;2023-12-29T10:42:08;99846.66;;;8.80;37.37
69219;BME280;56232;53.384;-2.732;2023-12-29T10:44:35;99843.75;;;8.31;37.80
69219;BME280;56232;53.384;-2.732;2023-12-29T10:47:07;99856.84;;;8.85;37.84
69219;BME280;56232;53.384;-2.732;2023-12-29T10:49:25;99860.32;;;9.34;37.36
69219;BME280;56232;53.384;-2.732;2023-12-29T10:51:50;99867.94;;;8.42;38.01
69219;BME280;56232;53.384;-2.732;2023-12-29T10:54:19;99865.49;;;8.54;37.71
69219;BME280;56232;53.384;-2.732;2023-12-29T10:56:41;99859.62;;;9.16;36.79
69219;BME280;56232;53.384;-2.732;2023-12-29T10:59:07;99856.48;;;9.34;37.36
69219;BME280;56232;53.384;-2.732;2023-12-29T11:01:34;99861.29;;;8.77;37.03
69219;BME280;56232;53.384;-2.732;2023-12-29T11:03:59;99858.78;;;8.81;37.16
69219;BME280;56232;53.384;-2.732;2023-12-29T11:06:23;99858.60;;;9.06;37.16
69219;BME280;56232;53.384;-2.732;2023-12-29T11:08:49;99860.41;;;9.13;37.33
69219;BME280;56232;53.384;-2.732;2023-12-29T11:11:15;99856.94;;;10.12;37.85
69219;BME280;56232;53.384;-2.732;2023-12-29T11:13:40;99860.17;;;10.06;37.55
69219;BME280;56232;53.384;-2.732;2023-12-29T11:16:06;99852.48;;;9.54;37.79
69219;BME280;56232;53.384;-2.732;2023-12-29T11:18:32;99845.53;;;8.08;37.12
69219;BME280;56232;53.384;-2.732;2023-12-29T11:20:57;99847.65;;;9.14;37.13
69219;BME280;56232;53.384;-2.732;2023-12-29T11:23:22;99852.09;;;9.68;37.15
69219;BME280;56232;53.384;-2.732;2023-12-29T11:25:48;99850.95;;;9.96;37.48
69219;BME280;56232;53.384;-2.732;2023-12-29T11:28:13;99849.84;;;9.43;37.03
69219;BME280;56232;53.384;-2.732;2023-12-29T11:30:39;99841.50;;;9.41;37.30
69219;BME280;56232;53.384;-2.732;2023-12-29T11:33:08;99836.59;;;9.44;37.41
69219;BME280;56232;53.384;-2.732;2023-12-29T11:35:34;99834.28;;;9.21;37.34
69219;BME280;56232;53.384;-2.732;2023-12-29T11:38:08;99835.83;;;9.26;37.30
69219;BME280;56232;53.384;-2.732;2023-12-29T11:40:24;99833.46;;;9.50;37.22
69219;BME280;56232;53.384;-2.732;2023-12-29T11:42:49;99835.91;;;10.73;37.86
69219;BME280;56232;53.384;-2.732;2023-12-29T11:47:38;99848.22;;;10.03;36.91
69219;BME280;56232;53.384;-2.732;2023-12-29T11:50:05;99859.04;;;10.13;37.12
69219;BME280;56232;53.384;-2.732;2023-12-29T11:52:33;99855.99;;;10.18;37.27
69219;BME280;56232;53.384;-2.732;2023-12-29T11:59:47;99854.12;;;10.48;37.73
69219;BME280;56232;53.384;-2.732;2023-12-29T12:02:26;99847.06;;;10.57;36.77
69219;BME280;56232;53.384;-2.732;2023-12-29T12:04:38;99848.88;;;10.43;37.65
69219;BME280;56232;53.384;-2.732;2023-12-29T12:07:04;99841.69;;;9.34;37.29
69219;BME280;56232;53.384;-2.732;2023-12-29T12:09:29;99838.88;;;9.42;37.54
69219;BME280;56232;53.384;-2.732;2023-12-29T12:11:55;99845.39;;;10.13;37.86
69219;BME280;56232;53.384;-2.732;2023-12-29T12:16:48;99846.62;;;10.86;36.96
69219;BME280;56232;53.384;-2.732;2023-12-29T12:19:12;99839.28;;;10.75;37.45
69219;BME280;56232;53.384;-2.732;2023-12-29T12:21:38;99827.28;;;10.49;37.50
69219;BME280;56232;53.384;-2.732;2023-12-29T12:24:03;99819.59;;;9.57;37.88
69219;BME280;56232;53.384;-2.732;2023-12-29T12:26:30;99821.51;;;9.97;38.01
69219;BME280;56232;53.384;-2.732;2023-12-29T12:28:54;99820.09;;;9.97;37.41
69219;BME280;56232;53.384;-2.732;2023-12-29T12:31:19;99818.67;;;10.15;37.27
69219;BME280;56232;53.384;-2.732;2023-12-29T12:33:53;99814.08;;;9.31;37.69
69219;BME280;56232;53.384;-2.732;2023-12-29T12:36:10;99812.08;;;10.68;37.70
69219;BME280;56232;53.384;-2.732;2023-12-29T12:38:36;99809.69;;;10.24;36.34
69219;BME280;56232;53.384;-2.732;2023-12-29T12:41:10;99812.92;;;10.48;36.90
69219;BME280;56232;53.384;-2.732;2023-12-29T12:43:28;99812.95;;;10.05;37.52
69219;BME280;56232;53.384;-2.732;2023-12-29T12:45:54;99812.74;;;10.50;36.73
69219;BME280;56232;53.384;-2.732;2023-12-29T12:48:22;99820.46;;;10.84;36.74
69219;BME280;56232;53.384;-2.732;2023-12-29T12:50:45;99825.40;;;11.08;36.76
69219;BME280;56232;53.384;-2.732;2023-12-29T12:53:11;99828.07;;;11.08;36.51
69219;BME280;56232;53.384;-2.732;2023-12-29T12:55:35;99831.78;;;11.17;37.02
69219;BME280;56232;53.384;-2.732;2023-12-29T12:58:01;99837.34;;;11.19;36.53
69219;BME280;56232;53.384;-2.732;2023-12-29T13:00:28;99841.49;;;10.76;37.19
69219;BME280;56232;53.384;-2.732;2023-12-29T13:02:52;99837.90;;;10.88;36.77
69219;BME280;56232;53.384;-2.732;2023-12-29T13:05:18;99832.23;;;11.49;36.90